createdAt,value
2023-05-09T00:00:00.157Z,2.64
2023-05-09T00:03:06.376Z,2.63
2023-05-09T00:06:14.006Z,2.61
2023-05-09T00:09:20.185Z,2.61
2023-05-09T00:12:27.275Z,2.55
2023-05-09T00:15:36.299Z,2.52
2023-05-09T00:18:43.004Z,2.49
2023-05-09T00:21:49.482Z,2.44
2023-05-09T00:24:56.708Z,2.39
2023-05-09T00:28:02.808Z,2.36
2023-05-09T00:31:12.338Z,2.35
2023-05-09T00:34:18.416Z,2.36
2023-05-09T00:37:25.443Z,2.38
2023-05-09T00:40:36.603Z,2.29
2023-05-09T00:43:43.470Z,2.34
2023-05-09T00:46:52.441Z,2.35
2023-05-09T00:50:01.278Z,2.30
2023-05-09T00:53:13.146Z,2.24
2023-05-09T00:56:22.070Z,2.25
2023-05-09T00:59:34.557Z,2.16
2023-05-09T01:02:45.433Z,2.20
2023-05-09T01:06:01.858Z,2.13
2023-05-09T01:09:27.601Z,2.14
2023-05-09T01:12:49.555Z,2.16
2023-05-09T01:16:17.594Z,2.19
2023-05-09T01:20:00.182Z,2.12
2023-05-09T01:23:38.278Z,2.09
2023-05-09T01:27:19.020Z,2.08
2023-05-09T01:30:34.316Z,2.04
2023-05-09T01:33:45.478Z,1.99
2023-05-09T01:36:59.094Z,1.95
2023-05-09T01:40:15.500Z,1.93
2023-05-09T01:43:27.095Z,1.93
2023-05-09T01:46:37.968Z,1.89
2023-05-09T01:49:47.781Z,1.86
2023-05-09T01:53:01.379Z,1.86
2023-05-09T01:56:17.325Z,1.86
2023-05-09T01:59:33.274Z,1.81
2023-05-09T02:02:44.693Z,1.81
2023-05-09T02:05:53.796Z,1.82
2023-05-09T02:09:01.954Z,1.82
2023-05-09T02:12:08.732Z,1.82
2023-05-09T02:15:16.735Z,1.79
2023-05-09T02:18:25.351Z,1.75
2023-05-09T02:21:32.258Z,1.73
2023-05-09T02:24:39.145Z,1.73
2023-05-09T02:27:49.623Z,1.74
2023-05-09T02:31:05.024Z,1.59
2023-05-09T02:34:16.470Z,1.55
2023-05-09T02:37:24.032Z,1.55
2023-05-09T02:40:33.516Z,1.55
2023-05-09T02:43:39.459Z,1.63
2023-05-09T02:46:46.648Z,1.65
2023-05-09T02:50:01.377Z,1.62
2023-05-09T02:53:15.963Z,1.58
2023-05-09T02:56:28.662Z,1.58
2023-05-09T02:59:35.539Z,1.54
2023-05-09T03:02:42.937Z,1.50
2023-05-09T03:05:58.148Z,1.57
2023-05-09T03:09:04.160Z,1.63
2023-05-09T03:12:12.122Z,1.66
2023-05-09T03:15:24.046Z,1.73
2023-05-09T03:18:31.331Z,1.73
2023-05-09T03:21:40.030Z,1.74
2023-05-09T03:25:03.986Z,1.77
2023-05-09T03:28:09.992Z,1.77
2023-05-09T03:31:19.520Z,1.81
2023-05-09T03:34:25.439Z,1.77
2023-05-09T03:37:35.037Z,1.76
2023-05-09T03:40:41.745Z,1.73
2023-05-09T03:43:50.774Z,1.83
2023-05-09T03:46:56.632Z,1.84
2023-05-09T03:50:06.064Z,1.87
2023-05-09T03:53:15.826Z,1.90
2023-05-09T03:56:26.173Z,1.91
2023-05-09T03:59:33.120Z,2.06
2023-05-09T04:02:41.104Z,2.11
2023-05-09T04:05:50.779Z,2.21
2023-05-09T04:09:11.982Z,2.36
2023-05-09T04:12:20.630Z,2.86
2023-05-09T04:15:28.308Z,3.29
2023-05-09T04:18:36.868Z,3.65
2023-05-09T04:21:44.972Z,4.06
2023-05-09T04:24:53.548Z,4.18
2023-05-09T04:28:00.933Z,4.63
2023-05-09T04:31:07.731Z,5.21
2023-05-09T04:34:15.930Z,5.71
2023-05-09T04:37:22.319Z,6.12
2023-05-09T04:40:38.770Z,6.13
2023-05-09T04:43:44.939Z,6.33
2023-05-09T04:47:01.559Z,6.72
2023-05-09T04:50:25.489Z,6.95
2023-05-09T04:53:32.306Z,7.11
2023-05-09T04:56:42.473Z,6.97
2023-05-09T04:59:50.037Z,7.00
2023-05-09T05:02:56.224Z,7.09
2023-05-09T05:06:06.625Z,7.55
2023-05-09T05:09:14.190Z,7.70
2023-05-09T05:12:23.724Z,8.10
2023-05-09T05:15:29.865Z,7.95
2023-05-09T05:18:37.461Z,8.05
2023-05-09T05:21:44.819Z,8.24
2023-05-09T05:24:52.351Z,8.61
2023-05-09T05:28:01.620Z,9.18
2023-05-09T05:31:08.848Z,9.61
2023-05-09T05:34:16.670Z,9.33
2023-05-09T05:37:24.455Z,8.87
2023-05-09T05:40:30.437Z,9.16
2023-05-09T05:43:43.237Z,9.33
2023-05-09T05:46:49.440Z,9.73
2023-05-09T05:49:57.167Z,9.62
2023-05-09T05:53:03.696Z,10.32
2023-05-09T05:56:11.173Z,11.37
2023-05-09T05:59:20.003Z,11.34
2023-05-09T06:02:27.155Z,10.55
2023-05-09T06:05:33.961Z,10.29
2023-05-09T06:08:41.357Z,10.54
2023-05-09T06:11:47.943Z,10.90
2023-05-09T06:14:57.322Z,10.65
2023-05-09T06:18:03.712Z,11.15
2023-05-09T06:21:11.026Z,11.36
2023-05-09T06:24:31.633Z,11.09
2023-05-09T06:27:42.042Z,11.59
2023-05-09T06:30:50.800Z,11.65
2023-05-09T06:33:57.609Z,11.65
2023-05-09T06:37:03.554Z,11.78
2023-05-09T06:40:12.582Z,12.34
2023-05-09T06:43:18.559Z,12.03
2023-05-09T06:46:28.140Z,12.37
2023-05-09T06:49:36.293Z,12.04
2023-05-09T06:52:43.721Z,11.49
2023-05-09T06:55:49.925Z,11.15
2023-05-09T06:58:56.848Z,11.44
2023-05-09T07:02:06.829Z,11.65
2023-05-09T07:05:14.059Z,12.28
2023-05-09T07:08:20.400Z,11.70
2023-05-09T07:11:27.403Z,11.15
2023-05-09T07:14:37.296Z,11.39
2023-05-09T07:17:47.069Z,11.35
2023-05-09T07:20:53.094Z,11.20
2023-05-09T07:23:59.868Z,11.58
2023-05-09T07:27:06.822Z,11.67
2023-05-09T07:30:14.896Z,11.50
2023-05-09T07:33:23.854Z,11.49
2023-05-09T07:36:30.822Z,11.52
2023-05-09T07:39:41.300Z,11.03
2023-05-09T07:42:54.421Z,12.12
2023-05-09T07:46:00.436Z,12.53
2023-05-09T07:49:09.947Z,12.51
2023-05-09T07:52:17.610Z,12.88
2023-05-09T07:55:26.539Z,13.25
2023-05-09T07:58:32.499Z,12.74
2023-05-09T08:01:39.432Z,12.25
2023-05-09T08:04:49.287Z,12.77
2023-05-09T08:07:56.097Z,11.89
2023-05-09T08:11:02.243Z,12.00
2023-05-09T08:14:09.061Z,12.80
2023-05-09T08:17:15.048Z,12.33
2023-05-09T08:20:25.996Z,12.88
2023-05-09T08:23:32.812Z,12.09
2023-05-09T08:26:39.599Z,11.91
2023-05-09T08:29:46.408Z,11.60
2023-05-09T08:32:59.507Z,12.35
2023-05-09T08:36:09.493Z,12.92
2023-05-09T08:39:16.301Z,12.14
2023-05-09T08:42:26.786Z,12.59
2023-05-09T08:45:37.170Z,12.25
2023-05-09T08:48:46.471Z,11.58
2023-05-09T08:51:56.353Z,12.54
2023-05-09T08:55:04.059Z,12.36
2023-05-09T08:58:12.774Z,11.75
2023-05-09T09:01:22.092Z,12.41
2023-05-09T09:04:29.065Z,12.77
2023-05-09T09:07:39.775Z,12.71
2023-05-09T09:10:50.254Z,12.48
2023-05-09T09:13:59.113Z,13.30
2023-05-09T09:17:09.439Z,13.19
2023-05-09T09:20:27.682Z,12.61
2023-05-09T09:23:40.982Z,13.55
2023-05-09T09:26:52.000Z,13.27
2023-05-09T09:30:14.629Z,13.12
2023-05-09T09:33:24.345Z,12.90
2023-05-09T09:36:32.737Z,12.71
2023-05-09T09:39:41.285Z,12.96
2023-05-09T09:42:50.087Z,13.72
2023-05-09T09:45:58.286Z,13.39
2023-05-09T09:49:05.208Z,13.67
2023-05-09T09:52:11.115Z,13.88
2023-05-09T09:55:27.891Z,13.70
2023-05-09T09:58:36.066Z,13.76
2023-05-09T10:02:06.106Z,13.88
2023-05-09T10:05:15.838Z,13.76
2023-05-09T10:08:22.844Z,13.21
2023-05-09T10:11:31.721Z,13.99
2023-05-09T10:14:41.553Z,13.91
2023-05-09T10:17:47.888Z,13.93
2023-05-09T10:20:56.707Z,13.93
2023-05-09T10:24:06.400Z,14.80
2023-05-09T10:27:18.825Z,15.06
2023-05-09T10:30:34.219Z,14.37
2023-05-09T10:33:49.873Z,14.31
2023-05-09T10:36:57.789Z,14.42
2023-05-09T10:40:09.595Z,13.74
2023-05-09T10:43:22.088Z,14.31
2023-05-09T10:46:31.613Z,14.50
2023-05-09T10:49:38.331Z,14.74
2023-05-09T10:53:14.482Z,14.11
2023-05-09T10:56:29.496Z,14.50
2023-05-09T10:59:44.022Z,14.64
2023-05-09T11:03:10.906Z,14.87
2023-05-09T11:06:51.388Z,14.86
2023-05-09T11:10:12.915Z,14.95
2023-05-09T11:13:23.865Z,14.86
2023-05-09T11:16:32.433Z,14.94
2023-05-09T11:19:57.031Z,15.10
2023-05-09T11:23:09.012Z,14.66
2023-05-09T11:26:18.296Z,14.59
2023-05-09T11:29:29.776Z,15.52
2023-05-09T11:32:49.391Z,14.57
2023-05-09T11:36:25.854Z,15.07
2023-05-09T11:39:33.037Z,15.39
2023-05-09T11:42:39.881Z,15.17
2023-05-09T11:45:50.046Z,15.40
2023-05-09T11:48:58.762Z,15.90
2023-05-09T11:52:05.469Z,16.13
2023-05-09T11:55:14.717Z,15.50
2023-05-09T11:58:21.999Z,14.90
2023-05-09T12:01:29.584Z,15.31
2023-05-09T12:04:39.896Z,15.07
2023-05-09T12:07:46.620Z,15.03
2023-05-09T12:10:53.846Z,15.89
2023-05-09T12:13:59.757Z,15.14
2023-05-09T12:17:06.680Z,15.28
2023-05-09T12:20:16.424Z,15.36
2023-05-09T12:23:23.692Z,15.67
2023-05-09T12:26:30.233Z,15.81
2023-05-09T12:29:38.761Z,15.54
2023-05-09T12:32:47.145Z,15.53
2023-05-09T12:36:11.598Z,14.89
2023-05-09T12:39:22.723Z,14.28
2023-05-09T12:42:31.738Z,14.58
2023-05-09T12:45:38.695Z,14.48
2023-05-09T12:48:50.626Z,13.94
2023-05-09T12:52:05.764Z,14.29
2023-05-09T12:55:17.195Z,14.50
2023-05-09T12:58:23.259Z,14.63
2023-05-09T13:01:37.959Z,14.14
2023-05-09T13:04:48.853Z,13.91
2023-05-09T13:08:00.999Z,14.31
2023-05-09T13:11:18.680Z,13.88
2023-05-09T13:14:30.372Z,13.73
2023-05-09T13:17:36.439Z,13.45
2023-05-09T13:20:43.864Z,13.67
2023-05-09T13:23:53.037Z,13.72
2023-05-09T13:26:59.833Z,13.81
2023-05-09T13:30:07.936Z,14.07
2023-05-09T13:33:25.409Z,13.95
2023-05-09T13:36:32.911Z,13.86
2023-05-09T13:39:42.357Z,14.24
2023-05-09T13:42:49.227Z,14.15
2023-05-09T13:45:56.102Z,14.00
2023-05-09T13:49:05.010Z,13.90
2023-05-09T13:52:12.406Z,13.55
2023-05-09T13:55:23.656Z,13.65
2023-05-09T13:58:30.472Z,13.55
2023-05-09T14:01:36.614Z,13.60
2023-05-09T14:04:44.317Z,13.81
2023-05-09T14:07:52.781Z,13.88
2023-05-09T14:11:04.262Z,13.84
2023-05-09T14:14:10.266Z,13.77
2023-05-09T14:17:17.268Z,13.98
2023-05-09T14:20:24.171Z,13.96
2023-05-09T14:23:32.036Z,13.85
2023-05-09T14:26:42.013Z,14.06
2023-05-09T14:29:49.753Z,14.00
2023-05-09T14:32:55.974Z,13.96
2023-05-09T14:36:05.104Z,13.89
2023-05-09T14:39:11.225Z,13.91
2023-05-09T14:42:21.082Z,13.67
2023-05-09T14:45:27.137Z,13.63
2023-05-09T14:48:34.137Z,14.10
2023-05-09T14:51:40.203Z,14.14
2023-05-09T14:54:46.968Z,14.05
2023-05-09T14:57:55.619Z,13.90
2023-05-09T15:01:03.024Z,13.81
2023-05-09T15:04:09.774Z,14.02
2023-05-09T15:07:16.508Z,13.89
2023-05-09T15:10:22.574Z,13.85
2023-05-09T15:13:32.142Z,13.44
2023-05-09T15:16:40.032Z,13.62
2023-05-09T15:19:47.263Z,13.55
2023-05-09T15:22:56.494Z,13.52
2023-05-09T15:26:03.249Z,13.67
2023-05-09T15:29:13.447Z,13.53
2023-05-09T15:32:20.724Z,13.50
2023-05-09T15:35:27.005Z,13.84
2023-05-09T15:38:33.688Z,13.78
2023-05-09T15:41:42.983Z,13.66
2023-05-09T15:44:53.172Z,13.51
2023-05-09T15:47:59.167Z,13.48
2023-05-09T15:51:06.048Z,13.48
2023-05-09T15:54:11.997Z,13.40
2023-05-09T15:57:20.123Z,13.44
2023-05-09T16:00:38.583Z,13.41
2023-05-09T16:03:45.515Z,13.31
2023-05-09T16:06:52.513Z,13.48
2023-05-09T16:10:00.253Z,13.39
2023-05-09T16:13:06.319Z,13.33
2023-05-09T16:16:16.061Z,13.35
2023-05-09T16:19:30.883Z,13.28
2023-05-09T16:22:37.795Z,13.32
2023-05-09T16:25:45.208Z,13.21
2023-05-09T16:28:52.359Z,13.19
2023-05-09T16:32:01.008Z,13.24
2023-05-09T16:35:22.753Z,13.11
2023-05-09T16:38:29.194Z,13.12
2023-05-09T16:41:36.000Z,13.01
2023-05-09T16:44:42.170Z,13.03
2023-05-09T16:47:51.726Z,12.86
2023-05-09T16:50:57.756Z,12.73
2023-05-09T16:54:09.990Z,12.74
2023-05-09T16:57:19.798Z,12.57
2023-05-09T17:00:39.961Z,12.61
2023-05-09T17:03:48.927Z,12.46
2023-05-09T17:06:55.996Z,12.50
2023-05-09T17:10:02.258Z,12.56
2023-05-09T17:13:09.701Z,12.63
2023-05-09T17:16:16.406Z,12.62
2023-05-09T17:19:28.756Z,12.59
2023-05-09T17:22:41.785Z,12.35
2023-05-09T17:25:52.242Z,12.32
2023-05-09T17:28:58.257Z,12.26
2023-05-09T17:32:07.913Z,12.21
2023-05-09T17:35:19.639Z,11.95
2023-05-09T17:38:26.540Z,11.91
2023-05-09T17:41:38.932Z,11.81
2023-05-09T17:44:47.864Z,11.78
2023-05-09T17:47:53.903Z,11.63
2023-05-09T17:51:09.934Z,11.53
2023-05-09T17:54:22.187Z,11.47
2023-05-09T17:57:29.161Z,11.20
2023-05-09T18:00:41.949Z,10.95
2023-05-09T18:03:51.196Z,11.03
2023-05-09T18:07:00.118Z,10.84
2023-05-09T18:10:15.517Z,10.76
2023-05-09T18:13:21.812Z,10.73
2023-05-09T18:16:28.711Z,10.71
2023-05-09T18:19:35.760Z,10.67
2023-05-09T18:22:45.067Z,10.61
2023-05-09T18:25:51.486Z,10.56
2023-05-09T18:28:58.422Z,10.40
2023-05-09T18:32:04.993Z,10.28
2023-05-09T18:35:12.927Z,10.26
2023-05-09T18:38:21.474Z,10.24
2023-05-09T18:41:34.259Z,10.10
2023-05-09T18:44:40.294Z,10.07
2023-05-09T18:47:47.178Z,10.04
2023-05-09T18:50:54.306Z,10.00
2023-05-09T18:54:03.839Z,9.90
2023-05-09T18:57:10.252Z,9.85
2023-05-09T19:00:19.101Z,9.71
2023-05-09T19:03:25.833Z,9.69
2023-05-09T19:06:34.946Z,9.68
2023-05-09T19:09:45.035Z,9.66
2023-05-09T19:12:52.312Z,9.59
2023-05-09T19:15:59.606Z,9.55
2023-05-09T19:19:06.440Z,9.50
2023-05-09T19:22:12.455Z,9.50
2023-05-09T19:25:22.474Z,9.43
2023-05-09T19:28:28.643Z,9.37
2023-05-09T19:31:35.428Z,9.35
2023-05-09T19:34:41.471Z,9.26
2023-05-09T19:37:50.447Z,9.23
2023-05-09T19:40:59.503Z,9.15
2023-05-09T19:44:07.552Z,9.09
2023-05-09T19:47:14.029Z,9.08
2023-05-09T19:50:21.463Z,9.01
2023-05-09T19:53:36.130Z,8.96
2023-05-09T19:56:45.577Z,9.00
2023-05-09T19:59:52.343Z,8.91
2023-05-09T20:03:02.852Z,8.85
2023-05-09T20:06:09.366Z,8.76
2023-05-09T20:09:21.116Z,8.79
2023-05-09T20:12:30.364Z,8.72
2023-05-09T20:15:37.610Z,8.66
2023-05-09T20:19:01.375Z,8.70
2023-05-09T20:22:09.242Z,8.67
2023-05-09T20:25:15.660Z,8.63
2023-05-09T20:28:25.224Z,8.54
2023-05-09T20:31:31.567Z,8.55
2023-05-09T20:34:38.454Z,8.41
2023-05-09T20:37:44.674Z,8.34
2023-05-09T20:40:51.450Z,8.28
2023-05-09T20:44:04.534Z,8.27
2023-05-09T20:47:11.812Z,8.20
2023-05-09T20:50:18.141Z,8.16
2023-05-09T20:53:26.805Z,8.06
2023-05-09T20:56:34.001Z,8.06
2023-05-09T20:59:44.393Z,7.96
2023-05-09T21:02:50.373Z,7.88
2023-05-09T21:05:57.490Z,7.91
2023-05-09T21:09:03.728Z,7.87
2023-05-09T21:12:11.393Z,7.80
2023-05-09T21:15:20.453Z,7.67
2023-05-09T21:18:27.783Z,7.57
2023-05-09T21:21:34.728Z,7.66
2023-05-09T21:24:41.400Z,7.66
2023-05-09T21:27:47.869Z,7.60
2023-05-09T21:31:00.224Z,7.51
2023-05-09T21:34:10.321Z,7.53
2023-05-09T21:37:17.208Z,7.56
2023-05-09T21:40:25.963Z,7.46
2023-05-09T21:43:32.784Z,7.52
2023-05-09T21:46:46.523Z,7.46
2023-05-09T21:49:53.469Z,7.47
2023-05-09T21:53:00.747Z,7.48
2023-05-09T21:56:08.624Z,7.52
2023-05-09T21:59:14.461Z,7.48
2023-05-09T22:02:24.026Z,7.42
2023-05-09T22:05:30.154Z,7.34
2023-05-09T22:08:36.900Z,7.44
2023-05-09T22:11:42.907Z,7.35
2023-05-09T22:14:56.329Z,7.34
2023-05-09T22:18:05.718Z,7.27
2023-05-09T22:21:12.989Z,7.20
2023-05-09T22:24:18.812Z,7.19
2023-05-09T22:27:25.654Z,7.18
2023-05-09T22:30:38.068Z,7.16
2023-05-09T22:33:47.469Z,7.00
2023-05-09T22:36:56.366Z,6.87
2023-05-09T22:40:03.732Z,6.87
2023-05-09T22:43:10.904Z,6.80
2023-05-09T22:46:17.636Z,6.77
2023-05-09T22:49:26.813Z,6.70
2023-05-09T22:52:33.568Z,6.59
2023-05-09T22:55:39.777Z,6.51
2023-05-09T22:58:46.911Z,6.52
2023-05-09T23:01:53.828Z,6.34
2023-05-09T23:05:03.553Z,6.27
2023-05-09T23:08:09.603Z,6.26
2023-05-09T23:11:16.301Z,6.23
2023-05-09T23:14:22.356Z,6.23
2023-05-09T23:17:32.081Z,6.25
2023-05-09T23:20:40.669Z,6.25
2023-05-09T23:23:47.407Z,6.19
2023-05-09T23:26:53.372Z,6.05
2023-05-09T23:30:00.223Z,6.07
2023-05-09T23:33:06.339Z,6.03
2023-05-09T23:36:15.943Z,5.97
2023-05-09T23:39:21.980Z,5.99
2023-05-09T23:42:29.161Z,5.89
2023-05-09T23:45:40.863Z,5.86
2023-05-09T23:48:47.677Z,5.85
2023-05-09T23:51:57.292Z,5.90
2023-05-09T23:55:04.099Z,5.81
2023-05-09T23:58:10.115Z,5.79
